Collins, Arkansas
Current Conditions -  °F | °C
As of 11:53 PM on Thursday 30 Oct 2014 (Local Time) from KLLQ Reporting Station
Few Clouds Few Clouds  
Wind Chill: 58°   Ceiling: Unl
Heat Index: 58°   Visibility: 10mi
Dew Point: 48°   Wind: 6mph
Humidity: 70%   Direction: 250°WSW
Pressure: 30.04"   Gusts: NA
Location:  33.4898°N, 91.4556°W
Report Text: KLLQ 310453Z AUTO 25005KT 10SM FEW100 14/09 A3004 RMK AO2 SLP172 T01440089
Loading
Personal Weather Stations






























Interactive Weather Map
Tropical Storm Tracking
New forecast layout! Learn more

10-Day Weather Forecast

Advertisements
Track Severe Weather on mobile